Startpagina
METAR-TAF:

METAR-TAF

Vliegvelden :

Honiara International Airport

Honiara, Guadalcanal, Salomonseilanden

breedte: 09-25S, lengte: 160-03E, hoogte: 8 m

Actueel weer

Dit bericht is 13 minuten geleden gemaakt, om 09:30 UTC
Wind 5 kt uit het oostnoordoosten
Temperatuur 27°C
Vochtigheid 94%
Druk 1010 hPa
Zicht 10 km of meer
Weinig wolken op 1600 ft, Cumulonimbus.
Verspreide wolken op 2800 ft
onweer, (lichte

METAR: AGGH 170930Z 07005KT 9999 -TS FEWT015 FEW016CB SCT028 27/26 Q1010 RMK CB TO SE,NE

Tijdstip: 20:43 (09:43 UTC)

Verwachting

Dit bericht is 10 uur en het 33 minuten geleden gemaakt, om 23:10 UTC
Verwachting geldig van 17 om 00 UTC tot 17 om 24 UTC
Wind 10 kt uit het noordoosten
Zicht 10 km of meer
Weinig wolken op 1700 ft
Verspreide wolken op 2800 ft
Kans 30%
tussen IN en het TE UTC
Zicht: 1009 m
Gebroken wolken op 1500 ft
Weinig wolken op 1600 ft, Cumulonimbus.

TAF: AGGH 162310Z 1700/1724 05010KT 9999 FEW017 SCT028 PROB30 INTER 1702/1707 5000 BKN015 FEW016CB T 31 32 31 26 Q 1010 1008 1007 1009

Waarnemingen en weersverwachtingen van meer dan 4000 vliegvelden (METAR en TAF).

De beschikbare stations zijn de gele en rode punten op de kaart.

Ga met uw muis naar het station om de naam te zien.

Klik dan om waarnemingen en weersverwachtingen te zien.

kaart wijzigen: klik op de groene knoppen met een zwart kruis om in te zoomen, op de groene knop met een streepje om uit te zoomen of op de groene pijlen voor aangrenzende kaarten.


METAR-TAF: